Time;durP1;ratioP1;P1;durP2;ratioP2;P2;SDS_P1;SDS_P2;PMS_P1;PMS_P2;Temp;Humidity;BMP_temperature;BMP_pressure;BME280_temperature;BME280_humidity;BME280_pressure;Samples;Min_cycle;Max_cycle;Signal;HPM_P1;HPM_P2
2022/03/28 00:01:34;;;;;;;22.85;14.18;;;6.80;46.90;;;;;;5095535;28;20599;-21
2022/03/28 00:04:00;;;;;;;17.88;10.57;;;6.80;46.00;;;;;;5093382;28;20020;-21
2022/03/28 00:06:26;;;;;;;14.77;9.65;;;6.70;46.10;;;;;;5095456;28;20032;-22
2022/03/28 00:08:52;;;;;;;18.10;10.68;;;6.70;45.70;;;;;;5094745;28;20094;-21
2022/03/28 00:11:19;;;;;;;20.05;12.05;;;6.60;45.00;;;;;;5094358;28;20526;-21
2022/03/28 00:13:46;;;;;;;20.58;11.55;;;6.60;44.90;;;;;;5094403;28;20013;-21
2022/03/28 00:16:14;;;;;;;37.90;24.35;;;6.60;45.50;;;;;;5095724;28;20078;-21
2022/03/28 00:18:40;;;;;;;26.77;18.15;;;6.50;46.10;;;;;;5095910;28;20020;-21
2022/03/28 00:21:06;;;;;;;21.83;14.20;;;6.50;46.00;;;;;;5095614;28;20028;-21
2022/03/28 00:23:33;;;;;;;42.17;26.33;;;6.40;46.00;;;;;;5095556;28;20112;-21
2022/03/28 00:26:00;;;;;;;18.65;11.63;;;6.40;45.70;;;;;;5095555;28;20028;-21
2022/03/28 00:28:26;;;;;;;17.60;11.65;;;6.30;45.70;;;;;;5094996;28;20028;-21
2022/03/28 00:30:53;;;;;;;24.77;16.48;;;6.30;45.50;;;;;;5095136;28;20120;-21
2022/03/28 00:33:19;;;;;;;20.10;12.05;;;6.30;45.50;;;;;;5093970;28;20028;-21
2022/03/28 00:35:45;;;;;;;23.92;15.27;;;6.20;46.00;;;;;;5095116;28;20035;-21
2022/03/28 00:38:13;;;;;;;15.05;9.27;;;6.20;46.10;;;;;;5095130;28;20074;-21
2022/03/28 00:40:40;;;;;;;15.95;9.65;;;6.10;46.00;;;;;;5077362;28;20491;-21
2022/03/28 00:43:08;;;;;;;19.92;13.45;;;6.10;45.40;;;;;;5095041;28;20039;-21
2022/03/28 00:45:37;;;;;;;19.77;12.73;;;6.10;45.70;;;;;;5094872;28;20395;-21
2022/03/28 00:48:04;;;;;;;17.38;10.07;;;6.00;46.10;;;;;;5095149;28;20107;-21
2022/03/28 00:50:31;;;;;;;13.38;8.70;;;6.00;46.50;;;;;;5094729;28;20418;-21
2022/03/28 00:52:59;;;;;;;15.07;8.98;;;5.90;46.20;;;;;;5094700;28;20507;-21
2022/03/28 00:55:25;;;;;;;19.35;11.18;;;5.90;46.20;;;;;;5094698;28;20414;-21
2022/03/28 00:57:52;;;;;;;24.50;17.45;;;5.90;46.90;;;;;;5094533;28;20032;-21
2022/03/28 01:00:18;;;;;;;50.78;31.45;;;5.80;47.20;;;;;;5094608;28;20028;-21
2022/03/28 01:02:44;;;;;;;44.08;28.02;;;5.80;49.40;;;;;;5093155;28;20042;-21
2022/03/28 01:05:11;;;;;;;47.92;30.35;;;5.80;51.10;;;;;;5094771;28;20040;-21
2022/03/28 01:07:41;;;;;;;33.85;22.83;;;5.70;51.80;;;;;;5095047;28;20027;-21
2022/03/28 01:10:12;;;;;;;15.82;9.57;;;5.70;49.80;;;;;;5094483;28;20103;-21
2022/03/28 01:12:44;;;;;;;13.70;8.65;;;5.70;48.70;;;;;;5094597;28;20078;-21
2022/03/28 01:15:14;;;;;;;12.95;8.50;;;5.70;48.20;;;;;;5094538;28;20028;-21
2022/03/28 01:20:30;;;;;;;18.00;11.00;;;5.60;47.20;;;;;;5094077;28;20031;-21
2022/03/28 01:22:56;;;;;;;15.48;8.50;;;5.60;49.30;;;;;;5094080;28;20036;-21
2022/03/28 01:25:24;;;;;;;13.30;8.27;;;5.60;47.90;;;;;;5094194;28;20026;-21
2022/03/28 01:27:53;;;;;;;14.18;8.70;;;5.50;47.90;;;;;;5093970;28;20028;-21
2022/03/28 01:30:21;;;;;;;15.93;9.27;;;5.50;48.00;;;;;;5093936;28;20050;-22
2022/03/28 01:32:54;;;;;;;13.38;7.82;;;5.50;48.00;;;;;;5093976;28;20472;-21
2022/03/28 01:35:31;;;;;;;15.68;9.02;;;5.40;47.30;;;;;;5094360;28;20073;-21
2022/03/28 01:37:59;;;;;;;12.98;8.38;;;5.40;47.60;;;;;;5093965;28;20028;-21
2022/03/28 01:40:26;;;;;;;14.68;8.80;;;5.40;47.70;;;;;;5094298;28;20043;-21
2022/03/28 01:42:52;;;;;;;18.73;11.95;;;5.40;47.50;;;;;;5093609;28;20161;-21
2022/03/28 01:45:18;;;;;;;17.63;10.65;;;5.30;47.50;;;;;;5093721;28;20020;-21
2022/03/28 01:47:46;;;;;;;13.20;7.88;;;5.30;48.30;;;;;;5094026;28;20109;-21
2022/03/28 01:50:13;;;;;;;23.77;14.23;;;5.20;47.50;;;;;;5093671;28;20117;-21
2022/03/28 01:52:39;;;;;;;15.30;8.73;;;5.20;47.80;;;;;;5093645;28;20497;-21
2022/03/28 01:55:06;;;;;;;15.18;8.98;;;5.20;48.00;;;;;;5093929;28;20012;-21
2022/03/28 01:57:32;;;;;;;19.80;12.10;;;5.10;47.70;;;;;;5093931;28;20569;-21
2022/03/28 01:59:59;;;;;;;15.55;8.88;;;5.10;49.20;;;;;;5093766;28;20032;-21
2022/03/28 02:02:25;;;;;;;19.55;11.77;;;5.00;48.00;;;;;;5093121;28;20052;-21
2022/03/28 02:04:51;;;;;;;16.10;10.02;;;5.00;48.90;;;;;;5093664;28;20072;-21
2022/03/28 02:07:17;;;;;;;15.60;10.38;;;5.00;48.50;;;;;;5093499;28;20031;-21
2022/03/28 02:09:43;;;;;;;15.63;9.13;;;4.90;47.90;;;;;;5093420;28;20102;-21
2022/03/28 02:12:10;;;;;;;22.55;13.60;;;4.90;47.90;;;;;;5093627;28;20032;-21
2022/03/28 02:14:35;;;;;;;15.45;9.48;;;4.90;49.10;;;;;;5093370;28;20077;-22
2022/03/28 02:17:01;;;;;;;13.77;8.88;;;4.80;49.10;;;;;;5092096;28;20028;-21
2022/03/28 02:19:27;;;;;;;16.30;8.65;;;4.80;48.20;;;;;;5093295;28;20476;-21
2022/03/28 02:21:53;;;;;;;15.48;9.63;;;4.80;48.40;;;;;;5093218;28;20032;-21
2022/03/28 02:24:19;;;;;;;30.08;18.08;;;4.70;48.50;;;;;;5092956;28;20036;-21
2022/03/28 02:26:45;;;;;;;25.80;16.60;;;4.70;49.60;;;;;;5092982;28;20110;-21
2022/03/28 02:29:10;;;;;;;28.67;18.40;;;4.60;49.80;;;;;;5093410;28;20525;-21
2022/03/28 02:31:36;;;;;;;20.25;12.50;;;4.60;50.20;;;;;;5093197;28;20031;-21
2022/03/28 02:34:02;;;;;;;18.65;9.98;;;4.60;50.60;;;;;;5093417;28;20024;-21
2022/03/28 02:36:28;;;;;;;18.48;11.45;;;4.60;49.70;;;;;;5093540;28;20483;-21
2022/03/28 02:38:54;;;;;;;15.80;10.10;;;4.60;49.90;;;;;;5093430;28;20024;-21
2022/03/28 02:41:20;;;;;;;22.50;14.02;;;4.60;49.30;;;;;;5092996;28;20036;-21
2022/03/28 02:43:45;;;;;;;16.80;9.48;;;4.50;50.50;;;;;;5093132;28;20032;-21
2022/03/28 02:46:11;;;;;;;20.48;11.18;;;4.50;49.20;;;;;;5093144;28;20119;-21
2022/03/28 02:48:37;;;;;;;15.00;9.68;;;4.50;49.60;;;;;;5092789;28;20020;-21
2022/03/28 02:51:03;;;;;;;31.83;19.42;;;4.50;49.30;;;;;;5093829;28;20028;-21
2022/03/28 02:53:29;;;;;;;23.15;13.57;;;4.50;49.70;;;;;;5093212;28;20468;-21
2022/03/28 02:55:55;;;;;;;27.17;15.60;;;4.40;49.90;;;;;;5093306;28;20480;-21
2022/03/28 02:58:21;;;;;;;16.38;10.07;;;4.40;50.00;;;;;;5092792;28;20380;-21
2022/03/28 03:00:47;;;;;;;15.40;9.57;;;4.30;50.00;;;;;;5092617;28;20065;-22
2022/03/28 03:03:13;;;;;;;18.25;10.88;;;4.30;49.80;;;;;;5092821;28;20031;-21
2022/03/28 03:05:39;;;;;;;14.55;8.63;;;4.30;50.60;;;;;;5092822;28;20020;-21
2022/03/28 03:08:06;;;;;;;14.48;8.35;;;4.30;49.80;;;;;;5093097;28;20056;-21
2022/03/28 03:10:33;;;;;;;21.60;13.38;;;4.20;49.80;;;;;;5092604;28;20031;-21
2022/03/28 03:12:59;;;;;;;14.18;9.40;;;4.20;49.60;;;;;;5091847;28;20032;-21
2022/03/28 03:15:25;;;;;;;14.25;9.35;;;4.20;49.70;;;;;;5093091;28;20024;-21
2022/03/28 03:17:51;;;;;;;22.52;15.27;;;4.20;49.60;;;;;;5092699;28;20028;-21
2022/03/28 03:20:17;;;;;;;22.48;13.35;;;4.20;50.10;;;;;;5092485;28;20020;-22
2022/03/28 03:22:43;;;;;;;32.08;18.95;;;4.10;51.20;;;;;;5093221;28;20145;-21
2022/03/28 03:25:09;;;;;;;42.20;23.65;;;4.10;52.60;;;;;;5093174;28;20384;-21
2022/03/28 03:27:38;;;;;;;39.00;22.92;;;4.10;52.10;;;;;;5093234;28;20372;-21
2022/03/28 03:30:09;;;;;;;29.52;17.27;;;4.10;51.00;;;;;;5092526;28;20032;-21
2022/03/28 03:32:37;;;;;;;43.88;27.30;;;4.00;52.50;;;;;;5092434;28;20020;-21
2022/03/28 03:35:04;;;;;;;25.15;16.92;;;4.00;52.60;;;;;;5092589;28;20102;-21
2022/03/28 03:37:30;;;;;;;28.17;19.42;;;4.00;52.10;;;;;;5092826;28;20039;-21
2022/03/28 03:39:56;;;;;;;35.50;21.60;;;4.00;52.00;;;;;;5095318;28;20437;-21
2022/03/28 03:42:22;;;;;;;17.45;9.95;;;4.00;51.70;;;;;;5095951;28;20024;-21
2022/03/28 03:44:48;;;;;;;16.33;9.95;;;3.90;51.30;;;;;;5096216;28;20040;-21
2022/03/28 03:47:14;;;;;;;25.17;15.77;;;3.90;51.00;;;;;;5096069;28;20027;-21
2022/03/28 03:49:40;;;;;;;15.68;9.95;;;3.90;51.00;;;;;;5096275;28;20034;-21
2022/03/28 03:52:07;;;;;;;13.98;8.13;;;3.90;51.00;;;;;;5095944;28;20027;-21
2022/03/28 03:54:33;;;;;;;13.50;7.90;;;3.80;51.00;;;;;;5095767;28;20024;-21
2022/03/28 03:56:59;;;;;;;20.83;12.48;;;3.80;51.10;;;;;;5095864;28;20078;-21
2022/03/28 03:59:25;;;;;;;13.55;7.55;;;3.80;51.10;;;;;;5096019;28;20028;-21
2022/03/28 04:01:51;;;;;;;13.00;7.75;;;3.80;51.00;;;;;;5095672;28;20055;-21
2022/03/28 04:04:17;;;;;;;13.48;7.88;;;3.70;50.80;;;;;;5096332;28;20352;-21
2022/03/28 04:06:43;;;;;;;13.98;8.90;;;3.70;50.70;;;;;;5095678;28;20503;-21
2022/03/28 04:09:09;;;;;;;14.23;7.53;;;3.70;51.00;;;;;;5095671;28;20051;-21
2022/03/28 04:11:36;;;;;;;12.50;7.32;;;3.70;51.40;;;;;;5095588;28;20024;-21
2022/03/28 04:14:02;;;;;;;13.82;9.75;;;3.70;51.20;;;;;;5095448;28;20479;-21
2022/03/28 04:16:28;;;;;;;11.95;7.10;;;3.70;51.20;;;;;;5095203;28;20024;-22
2022/03/28 04:18:54;;;;;;;11.48;6.45;;;3.70;51.20;;;;;;5095738;28;20034;-21
2022/03/28 04:21:20;;;;;;;11.55;6.80;;;3.70;51.20;;;;;;5095393;28;20388;-21
2022/03/28 04:23:46;;;;;;;22.63;13.50;;;3.70;50.80;;;;;;5095598;28;20051;-21
2022/03/28 04:26:12;;;;;;;12.60;7.00;;;3.70;51.20;;;;;;5095558;28;20028;-21
2022/03/28 04:28:38;;;;;;;20.40;13.40;;;3.60;50.80;;;;;;5095424;28;20028;-21
2022/03/28 04:31:04;;;;;;;29.55;21.05;;;3.70;51.20;;;;;;5095417;28;20103;-21
2022/03/28 04:33:31;;;;;;;50.92;34.30;;;3.60;52.30;;;;;;5095361;28;20081;-21
2022/03/28 04:35:57;;;;;;;25.80;16.38;;;3.60;54.40;;;;;;5095429;28;20028;-21
2022/03/28 04:38:24;;;;;;;24.92;16.30;;;3.60;54.00;;;;;;5095201;28;20431;-21
2022/03/28 04:40:52;;;;;;;15.98;9.30;;;3.50;54.30;;;;;;5095029;28;20038;-21
2022/03/28 04:43:21;;;;;;;24.20;14.32;;;3.50;54.10;;;;;;5094753;28;20028;-21
2022/03/28 04:45:48;;;;;;;28.75;18.27;;;3.50;53.30;;;;;;5094980;28;20488;-21
2022/03/28 04:48:14;;;;;;;21.77;13.30;;;3.60;55.00;;;;;;5094740;28;20081;-21
2022/03/28 04:50:43;;;;;;;37.50;21.17;;;3.60;54.70;;;;;;5094652;28;20034;-21
2022/03/28 04:53:09;;;;;;;31.98;18.50;;;3.60;53.20;;;;;;5094684;28;20028;-21
2022/03/28 04:55:35;;;;;;;37.85;22.30;;;3.60;53.40;;;;;;5094714;28;20032;-21
2022/03/28 04:58:02;;;;;;;20.98;12.25;;;3.70;53.20;;;;;;5094567;28;20039;-21
2022/03/28 05:00:28;;;;;;;31.55;17.27;;;3.70;53.20;;;;;;5093540;28;20047;-21
2022/03/28 05:02:54;;;;;;;28.77;18.65;;;3.70;53.70;;;;;;5094421;28;20496;-21
2022/03/28 05:05:20;;;;;;;15.45;8.15;;;3.70;53.10;;;;;;5094465;28;20032;-21
2022/03/28 05:07:46;;;;;;;31.15;20.10;;;3.70;53.10;;;;;;5094446;28;20056;-21
2022/03/28 05:10:16;;;;;;;39.33;23.20;;;3.70;52.90;;;;;;5094612;28;20454;-21
2022/03/28 05:12:42;;;;;;;28.98;15.98;;;3.70;53.80;;;;;;5095235;28;20077;-21
2022/03/28 05:15:08;;;;;;;36.25;19.52;;;3.70;53.40;;;;;;5093413;28;20025;-21
2022/03/28 05:17:35;;;;;;;11.38;6.75;;;3.70;53.10;;;;;;5095020;28;20353;-21
2022/03/28 05:20:01;;;;;;;23.75;14.30;;;3.70;52.90;;;;;;5094228;28;20032;-21
2022/03/28 05:22:27;;;;;;;64.00;30.63;;;3.70;54.00;;;;;;5093941;28;20035;-22
2022/03/28 05:24:55;;;;;;;24.40;13.93;;;3.60;57.50;;;;;;5094074;28;20028;-21
2022/03/28 05:27:21;;;;;;;17.63;10.13;;;3.60;54.80;;;;;;5094471;28;20531;-21
2022/03/28 05:29:47;;;;;;;25.58;14.10;;;3.50;53.90;;;;;;5093991;28;20115;-21
2022/03/28 05:32:14;;;;;;;28.95;16.33;;;3.50;54.60;;;;;;5093448;28;20024;-22
2022/03/28 05:34:40;;;;;;;28.08;16.75;;;3.50;54.40;;;;;;5094032;28;20024;-21
2022/03/28 05:37:11;;;;;;;24.73;15.30;;;3.40;55.20;;;;;;5093963;28;20024;-21
2022/03/28 05:39:39;;;;;;;17.63;10.13;;;3.40;54.50;;;;;;5094294;28;20020;-21
2022/03/28 05:42:07;;;;;;;27.17;15.07;;;3.40;55.10;;;;;;5094176;28;20028;-21
2022/03/28 05:44:33;;;;;;;10.07;5.97;;;3.40;55.20;;;;;;5093428;28;20526;-21
2022/03/28 05:46:59;;;;;;;33.17;22.85;;;3.40;54.20;;;;;;5093847;28;20153;-21
2022/03/28 05:49:25;;;;;;;20.75;13.23;;;3.40;54.80;;;;;;5093739;28;20095;-21
2022/03/28 05:51:53;;;;;;;12.82;8.13;;;3.40;55.00;;;;;;5093781;28;20024;-21
2022/03/28 05:54:20;;;;;;;16.90;9.15;;;3.40;54.40;;;;;;5093706;28;20020;-22
2022/03/28 05:56:46;;;;;;;15.82;8.50;;;3.40;54.80;;;;;;5094147;28;20024;-21
2022/03/28 05:59:12;;;;;;;14.50;8.75;;;3.50;54.10;;;;;;5093591;28;20024;-21
2022/03/28 06:01:39;;;;;;;24.10;15.98;;;3.50;55.00;;;;;;5092544;28;20095;-21
2022/03/28 06:04:05;;;;;;;20.08;12.18;;;3.60;55.70;;;;;;5093405;28;20028;-21
2022/03/28 06:06:33;;;;;;;8.93;5.32;;;3.70;55.20;;;;;;5093255;28;20024;-21
2022/03/28 06:09:00;;;;;;;22.33;14.93;;;3.80;54.40;;;;;;5093666;28;20110;-21
2022/03/28 06:11:26;;;;;;;14.85;10.07;;;3.90;54.50;;;;;;5094135;28;20032;-21
2022/03/28 06:13:53;;;;;;;11.40;7.28;;;4.10;55.20;;;;;;5093267;28;20024;-21
2022/03/28 06:16:20;;;;;;;10.93;6.47;;;4.30;54.80;;;;;;5093448;28;20028;-22
2022/03/28 06:18:46;;;;;;;19.60;11.63;;;4.50;54.10;;;;;;5093330;28;20024;-21
2022/03/28 06:21:12;;;;;;;24.98;15.82;;;4.60;54.10;;;;;;5092417;28;20024;-21
2022/03/28 06:23:38;;;;;;;11.77;7.65;;;4.90;54.20;;;;;;5093167;28;20396;-21
2022/03/28 06:26:04;;;;;;;12.35;7.85;;;5.00;53.40;;;;;;5093216;28;20031;-21
2022/03/28 06:28:31;;;;;;;16.40;11.05;;;5.30;53.40;;;;;;5093211;28;20055;-21
2022/03/28 06:30:57;;;;;;;27.77;19.05;;;5.40;53.20;;;;;;5093183;28;20024;-21
2022/03/28 06:33:24;;;;;;;25.50;16.33;;;5.60;53.80;;;;;;5093120;28;20383;-21
2022/03/28 06:35:52;;;;;;;44.30;26.05;;;5.80;54.20;;;;;;5093478;28;20027;-21
2022/03/28 06:38:19;;;;;;;22.27;13.95;;;6.00;54.60;;;;;;5094050;28;20031;-21
2022/03/28 06:40:45;;;;;;;37.28;24.80;;;6.20;55.10;;;;;;5093378;28;20028;-21
2022/03/28 06:43:11;;;;;;;32.22;19.85;;;6.30;53.60;;;;;;5092911;28;20031;-21
2022/03/28 06:45:37;;;;;;;25.90;16.00;;;6.50;54.60;;;;;;5092973;28;20036;-21
2022/03/28 06:48:04;;;;;;;20.00;12.43;;;6.80;55.00;;;;;;5093048;28;20123;-21
2022/03/28 06:50:30;;;;;;;19.95;13.63;;;7.00;53.80;;;;;;5092809;28;20027;-21
2022/03/28 06:52:56;;;;;;;49.58;30.45;;;7.20;53.70;;;;;;5092945;28;20032;-21
2022/03/28 06:55:23;;;;;;;26.33;16.65;;;7.40;53.10;;;;;;5092966;28;20073;-21
2022/03/28 06:57:49;;;;;;;41.92;27.60;;;7.70;52.40;;;;;;5093211;28;20026;-21
2022/03/28 07:00:17;;;;;;;27.30;17.13;;;7.90;53.00;;;;;;5092539;28;20031;-22
2022/03/28 07:02:44;;;;;;;22.60;13.32;;;8.10;54.10;;;;;;5092775;28;20052;-20
2022/03/28 07:05:11;;;;;;;20.55;13.32;;;8.30;53.40;;;;;;5093135;28;20115;-21
2022/03/28 07:07:45;;;;;;;22.92;13.60;;;8.50;52.60;;;;;;5093427;28;20047;-21
2022/03/28 07:10:14;;;;;;;23.38;14.07;;;8.70;51.90;;;;;;5093217;28;20032;-21
2022/03/28 07:12:40;;;;;;;41.53;25.65;;;8.90;52.00;;;;;;5093613;28;20421;-21
2022/03/28 07:15:09;;;;;;;35.92;22.73;;;9.10;51.50;;;;;;5096567;28;20145;-20
2022/03/28 07:17:48;;;;;;;26.83;17.15;;;9.30;51.70;;;;;;5096614;28;20057;-21
2022/03/28 07:20:14;;;;;;;49.53;29.48;;;9.50;51.80;;;;;;5096365;28;20158;-22
2022/03/28 07:22:41;;;;;;;53.40;32.75;;;9.70;52.30;;;;;;5096516;28;20039;-21
2022/03/28 07:25:08;;;;;;;41.70;26.48;;;9.90;51.20;;;;;;5096364;28;20039;-21
2022/03/28 07:27:41;;;;;;;43.50;28.50;;;10.10;52.10;;;;;;5096488;28;20028;-21
2022/03/28 07:30:08;;;;;;;44.53;29.05;;;10.40;52.20;;;;;;5096310;28;20024;-21
2022/03/28 07:32:35;;;;;;;42.38;27.95;;;10.50;52.50;;;;;;5094881;28;20040;-21
2022/03/28 07:35:02;;;;;;;67.07;42.90;;;10.80;53.10;;;;;;5096242;28;20059;-21
2022/03/28 07:37:28;;;;;;;59.08;38.80;;;11.00;53.70;;;;;;5096225;28;20031;-21
2022/03/28 07:39:55;;;;;;;37.65;25.52;;;11.10;52.80;;;;;;5096551;28;20028;-21
2022/03/28 07:42:20;;;;;;;29.95;18.67;;;11.30;51.30;;;;;;5095979;28;20118;-21
2022/03/28 07:44:47;;;;;;;32.60;21.45;;;11.40;50.70;;;;;;5095916;28;20114;-20
2022/03/28 07:47:13;;;;;;;43.83;25.90;;;11.60;50.30;;;;;;5096272;28;20020;-20
2022/03/28 07:49:40;;;;;;;32.85;20.95;;;11.90;50.20;;;;;;5096017;28;20027;-20
2022/03/28 07:52:10;;;;;;;29.52;20.38;;;12.00;50.00;;;;;;5095985;28;20036;-20
2022/03/28 07:54:36;;;;;;;31.48;20.77;;;12.30;50.10;;;;;;5095822;28;20043;-20
2022/03/28 07:57:05;;;;;;;33.55;22.38;;;12.50;49.60;;;;;;5095338;28;20024;-20
2022/03/28 07:59:31;;;;;;;61.10;37.53;;;12.70;49.50;;;;;;5095985;28;20028;-20
2022/03/28 08:01:57;;;;;;;59.15;39.28;;;12.90;49.40;;;;;;5095418;28;20048;-20
2022/03/28 08:04:23;;;;;;;49.33;31.92;;;13.10;49.30;;;;;;5095434;28;20134;-20
2022/03/28 08:06:50;;;;;;;57.90;38.08;;;13.30;49.00;;;;;;5096015;28;20125;-21
2022/03/28 08:09:17;;;;;;;32.15;21.30;;;13.40;49.00;;;;;;5096493;28;20054;-21
2022/03/28 08:11:43;;;;;;;53.40;34.70;;;13.70;48.50;;;;;;5095586;28;20079;-20
2022/03/28 08:14:09;;;;;;;43.33;29.13;;;13.80;48.20;;;;;;5095826;28;20044;-20
2022/03/28 08:16:35;;;;;;;33.85;22.33;;;14.00;48.10;;;;;;5095608;28;20482;-20
2022/03/28 08:19:01;;;;;;;27.48;17.25;;;14.20;47.60;;;;;;5095468;28;20510;-21
2022/03/28 08:21:27;;;;;;;26.48;16.90;;;14.40;47.30;;;;;;5095715;28;20028;-20
2022/03/28 08:23:53;;;;;;;47.58;32.70;;;14.60;47.00;;;;;;5095389;28;20361;-20
2022/03/28 08:26:18;;;;;;;48.53;31.45;;;14.70;46.80;;;;;;5094854;28;20031;-20
2022/03/28 08:28:45;;;;;;;35.28;22.48;;;14.90;46.80;;;;;;5095239;28;20035;-20
2022/03/28 08:31:12;;;;;;;33.35;21.67;;;15.00;46.50;;;;;;5095179;28;20575;-20
2022/03/28 08:33:38;;;;;;;32.47;23.05;;;15.20;46.30;;;;;;5095314;28;20023;-20
2022/03/28 08:36:04;;;;;;;39.95;26.25;;;15.40;46.10;;;;;;5095247;28;20103;-20
2022/03/28 08:38:34;;;;;;;27.42;18.20;;;15.60;45.70;;;;;;5094869;28;20023;-20
2022/03/28 08:41:01;;;;;;;42.03;28.13;;;15.80;45.30;;;;;;5095109;28;20551;-21
2022/03/28 08:43:27;;;;;;;43.17;30.30;;;16.00;45.20;;;;;;5094765;28;20085;-20
2022/03/28 08:45:53;;;;;;;45.60;29.33;;;16.30;44.80;;;;;;5095185;28;20512;-20
2022/03/28 08:48:20;;;;;;;41.65;25.98;;;16.50;44.50;;;;;;5094649;28;20103;-21
2022/03/28 08:50:49;;;;;;;45.15;30.83;;;16.80;44.10;;;;;;5095148;28;20027;-20
2022/03/28 08:53:16;;;;;;;43.03;28.88;;;17.10;43.70;;;;;;5095157;28;20020;-21
2022/03/28 08:55:44;;;;;;;39.03;27.13;;;17.40;43.30;;;;;;5094900;28;20077;-20
2022/03/28 08:58:11;;;;;;;27.23;18.52;;;17.70;42.80;;;;;;5095331;28;20096;-20
2022/03/28 09:00:38;;;;;;;31.02;19.88;;;18.10;42.60;;;;;;5094653;28;20040;-20
2022/03/28 09:03:05;;;;;;;47.42;28.95;;;18.40;42.30;;;;;;5094540;28;20039;-20
2022/03/28 09:05:39;;;;;;;29.48;20.10;;;18.70;41.80;;;;;;5094451;28;20028;-20
2022/03/28 09:08:08;;;;;;;28.60;20.40;;;19.00;41.50;;;;;;5094566;28;20106;-20
2022/03/28 09:10:35;;;;;;;32.70;23.63;;;19.30;41.10;;;;;;5094215;28;20028;-21
2022/03/28 09:13:01;;;;;;;25.88;17.58;;;19.60;40.70;;;;;;5094729;28;20483;-21
2022/03/28 09:15:41;;;;;;;26.15;18.55;;;20.00;40.30;;;;;;5094566;28;20027;-20
2022/03/28 09:18:08;;;;;;;34.97;22.83;;;20.30;40.00;;;;;;5094342;28;20510;-20
2022/03/28 09:20:36;;;;;;;37.40;26.10;;;20.60;39.40;;;;;;5094075;28;20468;-20
2022/03/28 09:23:34;;;;;;;34.70;25.27;;;20.90;38.80;;;;;;5094231;28;20535;-20
2022/03/28 09:26:22;;;;;;;47.35;31.58;;;21.20;38.30;;;;;;5093943;28;20082;-20
2022/03/28 09:29:03;;;;;;;45.78;32.30;;;21.60;36.70;;;;;;5094019;28;20031;-20
2022/03/28 09:31:31;;;;;;;34.35;25.05;;;21.80;36.10;;;;;;5095288;28;20020;-20
2022/03/28 09:34:00;;;;;;;40.72;28.63;;;22.00;37.10;;;;;;5094353;28;20078;-20
2022/03/28 09:36:56;;;;;;;44.58;32.97;;;22.20;36.80;;;;;;5094657;28;20024;-20
2022/03/28 09:39:30;;;;;;;36.05;25.25;;;22.40;36.10;;;;;;5094609;28;20020;-21
2022/03/28 09:42:10;;;;;;;35.10;25.25;;;22.70;36.10;;;;;;5094203;28;20028;-20
2022/03/28 09:44:43;;;;;;;36.50;26.60;;;22.90;35.60;;;;;;5093505;28;20384;-21
2022/03/28 09:47:13;;;;;;;33.00;23.65;;;23.20;35.40;;;;;;5093766;28;20030;-21
2022/03/28 09:49:44;;;;;;;31.90;24.13;;;23.40;35.40;;;;;;5094054;28;20028;-21
2022/03/28 09:52:12;;;;;;;38.08;27.65;;;23.70;34.90;;;;;;5094243;28;20024;-20
2022/03/28 09:54:59;;;;;;;37.90;27.60;;;24.00;34.50;;;;;;5093843;28;20103;-20
2022/03/28 09:57:32;;;;;;;36.03;26.38;;;24.30;32.50;;;;;;5093935;28;20031;-20
2022/03/28 10:00:13;;;;;;;30.20;21.95;;;24.50;33.50;;;;;;5093574;28;20443;-20
2022/03/28 10:02:40;;;;;;;34.25;25.30;;;24.70;32.90;;;;;;5093564;28;20127;-21
2022/03/28 10:05:07;;;;;;;37.58;28.25;;;24.90;33.00;;;;;;5093773;28;20073;-20
2022/03/28 10:07:35;;;;;;;33.80;24.15;;;25.10;32.50;;;;;;5092270;28;20044;-20
2022/03/28 10:10:03;;;;;;;30.25;23.05;;;25.30;32.00;;;;;;5093433;28;20035;-20
2022/03/28 10:12:29;;;;;;;23.88;16.60;;;25.40;31.80;;;;;;5093469;28;20028;-20
2022/03/28 10:15:01;;;;;;;35.75;26.27;;;25.60;32.00;;;;;;5092424;28;20388;-20
2022/03/28 10:17:29;;;;;;;34.33;25.33;;;25.90;31.80;;;;;;5093421;28;20032;-20
2022/03/28 10:19:56;;;;;;;36.90;28.80;;;26.10;31.80;;;;;;5093571;28;20297;-20
2022/03/28 10:22:32;;;;;;;40.33;28.48;;;26.30;31.40;;;;;;5093049;28;20069;-21
2022/03/28 10:25:19;;;;;;;32.30;25.60;;;26.40;31.20;;;;;;5093194;28;20422;-20
2022/03/28 10:27:46;;;;;;;33.58;26.30;;;26.50;31.40;;;;;;5093239;28;20035;-20
2022/03/28 10:30:21;;;;;;;34.30;26.75;;;26.60;31.20;;;;;;5091902;28;20028;-20
2022/03/28 10:33:08;;;;;;;35.58;26.10;;;26.80;31.20;;;;;;5093231;28;20032;-19
2022/03/28 10:35:35;;;;;;;38.88;27.33;;;26.90;30.10;;;;;;5093203;28;20024;-20
2022/03/28 10:38:21;;;;;;;35.05;28.45;;;27.10;31.20;;;;;;5093135;28;20032;-20
2022/03/28 10:40:54;;;;;;;32.55;26.05;;;27.20;30.30;;;;;;5093172;28;20033;-20
2022/03/28 10:43:24;;;;;;;34.30;27.00;;;27.30;30.00;;;;;;5093297;28;20032;-20
2022/03/28 10:45:53;;;;;;;36.58;27.45;;;27.40;31.00;;;;;;5093022;28;20058;-20
2022/03/28 10:48:41;;;;;;;29.55;23.85;;;27.60;30.60;;;;;;5094501;28;20028;-20
2022/03/28 10:51:18;;;;;;;29.17;23.55;;;27.80;30.20;;;;;;5096703;28;20427;-20
2022/03/28 10:53:47;;;;;;;35.63;27.45;;;28.00;30.30;;;;;;5097186;28;20035;-20
2022/03/28 10:56:15;;;;;;;30.77;23.50;;;28.10;30.40;;;;;;5097161;28;20027;-21
2022/03/28 10:58:52;;;;;;;30.40;23.73;;;28.20;30.30;;;;;;5096972;28;20073;-20
2022/03/28 11:01:31;;;;;;;33.78;26.52;;;28.40;30.30;;;;;;5097013;28;20155;-20
2022/03/28 11:04:15;;;;;;;33.28;25.30;;;28.50;30.20;;;;;;5097162;28;20504;-20
2022/03/28 11:07:00;;;;;;;33.42;27.13;;;28.60;29.30;;;;;;5096921;28;20035;-20
2022/03/28 11:09:35;;;;;;;24.15;19.42;;;28.70;29.10;;;;;;5097225;28;20043;-20
2022/03/28 11:12:04;;;;;;;32.20;24.73;;;28.80;29.90;;;;;;5096754;28;20088;-20
2022/03/28 11:14:53;;;;;;;31.70;24.40;;;28.90;29.80;;;;;;5096761;28;20012;-20
2022/03/28 11:17:29;;;;;;;27.77;22.70;;;29.00;29.50;;;;;;5097585;28;20107;-20
2022/03/28 11:20:00;;;;;;;32.65;24.98;;;29.20;29.50;;;;;;5096645;28;20027;-20
2022/03/28 11:22:49;;;;;;;32.00;24.98;;;29.30;29.40;;;;;;5096348;28;20475;-20
2022/03/28 11:25:33;;;;;;;28.83;22.50;;;29.40;27.90;;;;;;5095325;28;20024;-20
2022/03/28 11:28:18;;;;;;;37.33;27.45;;;29.50;28.80;;;;;;5096472;28;20025;-20
2022/03/28 11:31:11;;;;;;;27.48;21.30;;;29.60;29.00;;;;;;5096400;28;20051;-20
2022/03/28 11:33:44;;;;;;;31.60;23.88;;;29.80;27.60;;;;;;5096345;28;20552;-20
2022/03/28 11:36:12;;;;;;;37.90;26.40;;;30.00;28.50;;;;;;5096628;28;20110;-19
2022/03/28 11:38:51;;;;;;;36.67;27.95;;;30.10;28.80;;;;;;5096490;28;20387;-20
2022/03/28 11:41:20;;;;;;;36.47;28.65;;;30.20;28.70;;;;;;5096286;28;20055;-19
2022/03/28 11:43:48;;;;;;;38.78;27.65;;;30.00;28.60;;;;;;5095979;28;20392;-19
2022/03/28 11:46:19;;;;;;;43.70;29.88;;;30.10;28.80;;;;;;5096055;28;20548;-19
2022/03/28 11:49:01;;;;;;;38.55;27.35;;;30.10;28.70;;;;;;5096090;28;20028;-20
2022/03/28 11:51:30;;;;;;;33.08;25.17;;;30.20;28.50;;;;;;5096406;28;20031;-20
2022/03/28 11:54:01;;;;;;;31.80;24.50;;;30.30;28.70;;;;;;5095987;28;20055;-20
2022/03/28 11:56:31;;;;;;;39.60;32.08;;;30.40;28.70;;;;;;5095720;28;20036;-19
2022/03/28 11:59:08;;;;;;;27.92;21.67;;;30.50;28.60;;;;;;5095423;28;20020;-20
2022/03/28 12:01:37;;;;;;;43.33;29.35;;;30.70;28.50;;;;;;5095495;28;20059;-20
2022/03/28 12:04:04;;;;;;;40.97;29.00;;;30.80;28.50;;;;;;5095710;28;20107;-20
2022/03/28 12:06:33;;;;;;;45.75;33.60;;;30.90;28.20;;;;;;5095631;28;20421;-20
2022/03/28 12:08:59;;;;;;;48.50;33.80;;;30.90;28.00;;;;;;5095625;28;20474;-20
2022/03/28 12:11:26;;;;;;;35.47;27.88;;;30.90;27.90;;;;;;5095619;28;20023;-20
2022/03/28 12:13:53;;;;;;;37.33;28.42;;;31.00;28.00;;;;;;5095483;28;20090;-20
2022/03/28 12:16:21;;;;;;;36.88;28.00;;;31.10;27.90;;;;;;5095400;28;20031;-20
2022/03/28 12:18:48;;;;;;;34.10;26.80;;;31.20;27.80;;;;;;5095483;28;20035;-20
2022/03/28 12:21:17;;;;;;;34.90;27.33;;;31.20;27.80;;;;;;5095425;28;20032;-19
2022/03/28 12:23:43;;;;;;;40.53;30.63;;;31.30;27.60;;;;;;5095539;28;20379;-20
2022/03/28 12:26:09;;;;;;;41.00;30.30;;;31.30;27.50;;;;;;5095661;28;20028;-20
2022/03/28 12:28:38;;;;;;;33.97;27.70;;;31.30;27.40;;;;;;5095117;28;20361;-20
2022/03/28 12:31:08;;;;;;;33.33;25.42;;;31.30;27.50;;;;;;5095560;28;20028;-20
2022/03/28 12:33:38;;;;;;;30.20;21.65;;;31.30;27.70;;;;;;5095679;28;20059;-20
2022/03/28 12:36:08;;;;;;;34.80;27.42;;;31.30;27.90;;;;;;5095488;28;20031;-20
2022/03/28 12:38:38;;;;;;;34.53;26.75;;;31.40;27.50;;;;;;5094868;28;20438;-19
2022/03/28 12:41:08;;;;;;;37.53;28.83;;;31.30;27.90;;;;;;5095047;28;20118;-20
2022/03/28 12:43:35;;;;;;;47.20;34.08;;;31.30;27.90;;;;;;5095302;28;20066;-20
2022/03/28 12:46:05;;;;;;;36.85;29.38;;;31.20;28.10;;;;;;5094858;28;20024;-20